Upstream stations:
SHEF ID: PLYK1 COTTONWOOD R NR PLYMOUTH, KS
STATION TYPE:
Regulating: Stage = 28.00, Flow = 11213
PRECIP STAGE STAGE(2) RIV-FLOW BAT-LOAD
in ft ft cfs volt
Ccp-Rev Ccp-Rev Ccp-Rev Ccp-Rev Ccp-Rev
(US/Central)
11/26 00:00 0.00 2.67 3.10 163 11.89
11/26 01:00 0.00 2.67 3.10 163 11.89
11/26 02:00 0.00 2.67 3.10 163 11.83
11/26 03:00 0.00 2.67 3.10 163 11.77
11/26 04:00 0.00 2.67 3.10 163 11.77
11/26 05:00 0.00 2.66 3.10 161 11.77
11/26 06:00 0.00 2.66 3.09 161 11.77
11/26 07:00 0.00 2.66 3.10 161 11.72
11/26 08:00 0.00 2.66 3.10 161 11.77
11/26 09:00 0.00 2.67 3.10 163 11.95
11/26 10:00 0.00 2.66 3.10 161 12.36
11/26 11:00 0.00 2.67 3.10 163 12.36
11/26 12:00 0.00 2.65 3.10 160 12.30
11/26 13:00 0.00 2.68 3.10 164 12.48
11/26 14:00 0.00 2.64 3.10 158 12.48
11/26 15:00 0.00 2.68 3.10 164 12.30
11/26 16:00 0.00 2.67 3.10 163 12.24
11/26 17:00 0.00 2.67 3.10 163 12.19
11/26 18:00 0.00 2.67 3.10 163 12.13
11/26 19:00 0.00 2.67 3.11 163 12.13
11/26 20:00 0.00 2.67 3.10 163 12.07
11/26 21:00 0.00 2.67 3.10 163 12.07
11/26 22:00 0.00 2.67 3.10 163 12.01
11/26 23:00 0.00 2.66 3.10 161 12.01